sensor_id;sensor_type;location;lat;lon;timestamp;P1;durP1;ratioP1;P2;durP2;ratioP2
17790;SDS011;9019;48.132;-1.210;2024-03-08T00:01:54;15.67;;;11.87;;
17790;SDS011;9019;48.132;-1.210;2024-03-08T00:04:21;18.33;;;12.60;;
17790;SDS011;9019;48.132;-1.210;2024-03-08T00:06:48;18.30;;;11.80;;
17790;SDS011;9019;48.132;-1.210;2024-03-08T00:09:15;19.00;;;12.30;;
17790;SDS011;9019;48.132;-1.210;2024-03-08T00:11:43;18.40;;;12.30;;
17790;SDS011;9019;48.132;-1.210;2024-03-08T00:14:10;17.07;;;12.50;;
17790;SDS011;9019;48.132;-1.210;2024-03-08T00:16:38;18.43;;;12.17;;
17790;SDS011;9019;48.132;-1.210;2024-03-08T00:19:10;15.60;;;11.17;;
17790;SDS011;9019;48.132;-1.210;2024-03-08T00:21:37;16.30;;;11.80;;
17790;SDS011;9019;48.132;-1.210;2024-03-08T00:24:04;17.77;;;12.13;;
17790;SDS011;9019;48.132;-1.210;2024-03-08T00:26:32;19.13;;;12.30;;
17790;SDS011;9019;48.132;-1.210;2024-03-08T00:28:59;17.33;;;12.23;;
17790;SDS011;9019;48.132;-1.210;2024-03-08T00:31:26;17.90;;;12.47;;
17790;SDS011;9019;48.132;-1.210;2024-03-08T00:33:56;19.13;;;12.90;;
17790;SDS011;9019;48.132;-1.210;2024-03-08T00:36:24;18.03;;;12.93;;
17790;SDS011;9019;48.132;-1.210;2024-03-08T00:38:51;18.90;;;12.33;;
17790;SDS011;9019;48.132;-1.210;2024-03-08T00:41:18;19.17;;;12.57;;
17790;SDS011;9019;48.132;-1.210;2024-03-08T00:43:46;20.13;;;12.53;;
17790;SDS011;9019;48.132;-1.210;2024-03-08T00:46:14;19.33;;;12.37;;
17790;SDS011;9019;48.132;-1.210;2024-03-08T00:48:42;16.70;;;11.87;;
17790;SDS011;9019;48.132;-1.210;2024-03-08T00:51:09;16.90;;;12.40;;
17790;SDS011;9019;48.132;-1.210;2024-03-08T00:53:38;18.50;;;12.47;;
17790;SDS011;9019;48.132;-1.210;2024-03-08T00:56:05;19.40;;;12.77;;
17790;SDS011;9019;48.132;-1.210;2024-03-08T00:58:35;17.53;;;11.90;;
17790;SDS011;9019;48.132;-1.210;2024-03-08T01:01:03;17.00;;;11.70;;
17790;SDS011;9019;48.132;-1.210;2024-03-08T01:03:30;17.97;;;11.57;;
17790;SDS011;9019;48.132;-1.210;2024-03-08T01:05:59;16.43;;;11.47;;
17790;SDS011;9019;48.132;-1.210;2024-03-08T01:08:27;18.13;;;11.77;;
17790;SDS011;9019;48.132;-1.210;2024-03-08T01:10:55;17.10;;;11.87;;
17790;SDS011;9019;48.132;-1.210;2024-03-08T01:13:22;17.30;;;11.57;;
17790;SDS011;9019;48.132;-1.210;2024-03-08T01:15:49;15.83;;;11.30;;
17790;SDS011;9019;48.132;-1.210;2024-03-08T01:18:17;16.50;;;11.17;;
17790;SDS011;9019;48.132;-1.210;2024-03-08T01:20:44;16.80;;;11.40;;
17790;SDS011;9019;48.132;-1.210;2024-03-08T01:23:12;16.13;;;10.90;;
17790;SDS011;9019;48.132;-1.210;2024-03-08T01:25:39;16.10;;;10.60;;
17790;SDS011;9019;48.132;-1.210;2024-03-08T01:28:10;15.97;;;10.93;;
17790;SDS011;9019;48.132;-1.210;2024-03-08T01:30:38;14.90;;;10.47;;
17790;SDS011;9019;48.132;-1.210;2024-03-08T01:33:05;14.97;;;10.63;;
17790;SDS011;9019;48.132;-1.210;2024-03-08T01:35:32;13.43;;;10.07;;
17790;SDS011;9019;48.132;-1.210;2024-03-08T01:37:59;17.10;;;10.53;;
17790;SDS011;9019;48.132;-1.210;2024-03-08T01:40:26;15.87;;;10.97;;
17790;SDS011;9019;48.132;-1.210;2024-03-08T01:42:54;15.07;;;10.13;;
17790;SDS011;9019;48.132;-1.210;2024-03-08T01:45:23;16.93;;;10.73;;
17790;SDS011;9019;48.132;-1.210;2024-03-08T01:47:50;17.20;;;10.53;;
17790;SDS011;9019;48.132;-1.210;2024-03-08T01:50:17;15.10;;;10.53;;
17790;SDS011;9019;48.132;-1.210;2024-03-08T01:52:44;15.83;;;10.20;;
17790;SDS011;9019;48.132;-1.210;2024-03-08T01:55:12;16.33;;;10.67;;
17790;SDS011;9019;48.132;-1.210;2024-03-08T01:57:40;16.80;;;10.60;;
17790;SDS011;9019;48.132;-1.210;2024-03-08T02:00:08;14.77;;;9.90;;
17790;SDS011;9019;48.132;-1.210;2024-03-08T02:02:38;18.70;;;11.00;;
17790;SDS011;9019;48.132;-1.210;2024-03-08T02:05:07;15.27;;;10.20;;
17790;SDS011;9019;48.132;-1.210;2024-03-08T02:07:34;16.40;;;11.03;;
17790;SDS011;9019;48.132;-1.210;2024-03-08T02:10:02;14.73;;;10.67;;
17790;SDS011;9019;48.132;-1.210;2024-03-08T02:12:29;16.27;;;10.97;;
17790;SDS011;9019;48.132;-1.210;2024-03-08T02:14:56;16.47;;;10.83;;
17790;SDS011;9019;48.132;-1.210;2024-03-08T02:17:23;14.90;;;10.53;;
17790;SDS011;9019;48.132;-1.210;2024-03-08T02:19:52;14.60;;;10.53;;
17790;SDS011;9019;48.132;-1.210;2024-03-08T02:22:20;15.27;;;10.80;;
17790;SDS011;9019;48.132;-1.210;2024-03-08T02:24:47;14.63;;;10.37;;
17790;SDS011;9019;48.132;-1.210;2024-03-08T02:27:15;16.47;;;10.27;;
17790;SDS011;9019;48.132;-1.210;2024-03-08T02:29:42;16.87;;;10.30;;
17790;SDS011;9019;48.132;-1.210;2024-03-08T02:32:09;17.53;;;11.57;;
17790;SDS011;9019;48.132;-1.210;2024-03-08T02:34:36;15.83;;;10.83;;
17790;SDS011;9019;48.132;-1.210;2024-03-08T02:37:04;14.97;;;10.17;;
17790;SDS011;9019;48.132;-1.210;2024-03-08T02:39:33;15.00;;;10.40;;
17790;SDS011;9019;48.132;-1.210;2024-03-08T02:42:00;16.47;;;10.93;;
17790;SDS011;9019;48.132;-1.210;2024-03-08T02:44:28;16.37;;;11.20;;
17790;SDS011;9019;48.132;-1.210;2024-03-08T02:46:55;16.83;;;10.77;;
17790;SDS011;9019;48.132;-1.210;2024-03-08T02:49:22;17.67;;;11.40;;
17790;SDS011;9019;48.132;-1.210;2024-03-08T02:51:49;15.17;;;10.93;;
17790;SDS011;9019;48.132;-1.210;2024-03-08T02:54:16;17.23;;;11.27;;
17790;SDS011;9019;48.132;-1.210;2024-03-08T02:56:45;17.00;;;10.73;;
17790;SDS011;9019;48.132;-1.210;2024-03-08T02:59:15;18.33;;;10.97;;
17790;SDS011;9019;48.132;-1.210;2024-03-08T03:01:44;17.40;;;11.67;;
17790;SDS011;9019;48.132;-1.210;2024-03-08T03:04:10;16.17;;;11.20;;
17790;SDS011;9019;48.132;-1.210;2024-03-08T03:06:38;15.43;;;10.47;;
17790;SDS011;9019;48.132;-1.210;2024-03-08T03:09:05;17.57;;;11.27;;
17790;SDS011;9019;48.132;-1.210;2024-03-08T03:11:33;17.00;;;11.17;;
17790;SDS011;9019;48.132;-1.210;2024-03-08T03:14:01;17.13;;;11.47;;
17790;SDS011;9019;48.132;-1.210;2024-03-08T03:16:29;16.83;;;11.33;;
17790;SDS011;9019;48.132;-1.210;2024-03-08T03:18:56;18.33;;;11.77;;
17790;SDS011;9019;48.132;-1.210;2024-03-08T03:21:28;17.30;;;11.47;;
17790;SDS011;9019;48.132;-1.210;2024-03-08T03:23:56;18.43;;;11.23;;
17790;SDS011;9019;48.132;-1.210;2024-03-08T03:26:24;17.23;;;11.67;;
17790;SDS011;9019;48.132;-1.210;2024-03-08T03:28:51;18.97;;;12.53;;
17790;SDS011;9019;48.132;-1.210;2024-03-08T03:31:20;18.67;;;12.23;;
17790;SDS011;9019;48.132;-1.210;2024-03-08T03:33:49;18.43;;;12.33;;
17790;SDS011;9019;48.132;-1.210;2024-03-08T03:36:17;19.63;;;12.73;;
17790;SDS011;9019;48.132;-1.210;2024-03-08T03:38:44;17.40;;;12.20;;
17790;SDS011;9019;48.132;-1.210;2024-03-08T03:41:11;20.47;;;12.33;;
17790;SDS011;9019;48.132;-1.210;2024-03-08T03:43:39;19.50;;;12.50;;
17790;SDS011;9019;48.132;-1.210;2024-03-08T03:46:06;19.80;;;13.30;;
17790;SDS011;9019;48.132;-1.210;2024-03-08T03:48:37;21.80;;;13.40;;
17790;SDS011;9019;48.132;-1.210;2024-03-08T03:51:04;21.57;;;13.73;;
17790;SDS011;9019;48.132;-1.210;2024-03-08T03:53:32;21.70;;;13.40;;
17790;SDS011;9019;48.132;-1.210;2024-03-08T03:55:59;23.13;;;13.33;;
17790;SDS011;9019;48.132;-1.210;2024-03-08T03:58:26;21.23;;;12.97;;
17790;SDS011;9019;48.132;-1.210;2024-03-08T04:00:54;21.40;;;13.57;;
17790;SDS011;9019;48.132;-1.210;2024-03-08T04:03:21;20.63;;;13.37;;
17790;SDS011;9019;48.132;-1.210;2024-03-08T04:05:50;22.83;;;14.37;;
17790;SDS011;9019;48.132;-1.210;2024-03-08T04:08:17;22.17;;;14.00;;
17790;SDS011;9019;48.132;-1.210;2024-03-08T04:10:44;20.87;;;13.80;;
17790;SDS011;9019;48.132;-1.210;2024-03-08T04:13:11;23.33;;;14.50;;
17790;SDS011;9019;48.132;-1.210;2024-03-08T04:15:40;22.23;;;14.43;;
17790;SDS011;9019;48.132;-1.210;2024-03-08T04:18:09;22.13;;;14.60;;
17790;SDS011;9019;48.132;-1.210;2024-03-08T04:20:36;23.47;;;14.53;;
17790;SDS011;9019;48.132;-1.210;2024-03-08T04:23:06;22.60;;;14.50;;
17790;SDS011;9019;48.132;-1.210;2024-03-08T04:25:33;24.93;;;15.50;;
17790;SDS011;9019;48.132;-1.210;2024-03-08T04:28:01;25.97;;;15.27;;
17790;SDS011;9019;48.132;-1.210;2024-03-08T04:30:28;24.33;;;15.83;;
17790;SDS011;9019;48.132;-1.210;2024-03-08T04:32:55;29.00;;;16.93;;
17790;SDS011;9019;48.132;-1.210;2024-03-08T04:35:22;25.07;;;16.47;;
17790;SDS011;9019;48.132;-1.210;2024-03-08T04:37:50;25.20;;;15.27;;
17790;SDS011;9019;48.132;-1.210;2024-03-08T04:40:19;26.43;;;16.40;;
17790;SDS011;9019;48.132;-1.210;2024-03-08T04:42:46;25.97;;;16.07;;
17790;SDS011;9019;48.132;-1.210;2024-03-08T04:45:16;25.67;;;16.47;;
17790;SDS011;9019;48.132;-1.210;2024-03-08T04:47:43;27.13;;;16.77;;
17790;SDS011;9019;48.132;-1.210;2024-03-08T04:50:10;25.80;;;16.27;;
17790;SDS011;9019;48.132;-1.210;2024-03-08T04:52:38;26.17;;;16.70;;
17790;SDS011;9019;48.132;-1.210;2024-03-08T04:55:05;26.80;;;16.67;;
17790;SDS011;9019;48.132;-1.210;2024-03-08T04:57:34;27.67;;;17.33;;
17790;SDS011;9019;48.132;-1.210;2024-03-08T05:00:01;26.00;;;16.40;;
17790;SDS011;9019;48.132;-1.210;2024-03-08T05:02:35;27.93;;;17.67;;
17790;SDS011;9019;48.132;-1.210;2024-03-08T05:05:04;27.33;;;16.37;;
17790;SDS011;9019;48.132;-1.210;2024-03-08T05:07:32;27.27;;;16.60;;
17790;SDS011;9019;48.132;-1.210;2024-03-08T05:10:00;28.13;;;17.00;;
17790;SDS011;9019;48.132;-1.210;2024-03-08T05:12:27;26.90;;;16.63;;
17790;SDS011;9019;48.132;-1.210;2024-03-08T05:14:56;25.93;;;16.10;;
17790;SDS011;9019;48.132;-1.210;2024-03-08T05:17:23;24.43;;;16.03;;
17790;SDS011;9019;48.132;-1.210;2024-03-08T05:19:51;30.23;;;17.47;;
17790;SDS011;9019;48.132;-1.210;2024-03-08T05:22:18;28.23;;;17.10;;
17790;SDS011;9019;48.132;-1.210;2024-03-08T05:24:45;27.10;;;17.13;;
17790;SDS011;9019;48.132;-1.210;2024-03-08T05:27:13;28.27;;;16.37;;
17790;SDS011;9019;48.132;-1.210;2024-03-08T05:29:40;27.57;;;17.77;;
17790;SDS011;9019;48.132;-1.210;2024-03-08T05:32:08;27.93;;;17.50;;
17790;SDS011;9019;48.132;-1.210;2024-03-08T05:34:37;26.97;;;16.77;;
17790;SDS011;9019;48.132;-1.210;2024-03-08T05:37:04;26.53;;;16.50;;
17790;SDS011;9019;48.132;-1.210;2024-03-08T05:39:32;26.93;;;16.57;;
17790;SDS011;9019;48.132;-1.210;2024-03-08T05:41:59;26.70;;;16.73;;
17790;SDS011;9019;48.132;-1.210;2024-03-08T05:44:26;27.03;;;16.73;;
17790;SDS011;9019;48.132;-1.210;2024-03-08T05:46:56;25.30;;;15.97;;
17790;SDS011;9019;48.132;-1.210;2024-03-08T05:49:24;26.33;;;16.40;;
17790;SDS011;9019;48.132;-1.210;2024-03-08T05:51:51;25.90;;;16.67;;
17790;SDS011;9019;48.132;-1.210;2024-03-08T05:54:19;25.83;;;16.60;;
17790;SDS011;9019;48.132;-1.210;2024-03-08T05:56:49;25.97;;;16.00;;
17790;SDS011;9019;48.132;-1.210;2024-03-08T05:59:18;27.47;;;16.27;;
17790;SDS011;9019;48.132;-1.210;2024-03-08T06:01:45;25.03;;;16.17;;
17790;SDS011;9019;48.132;-1.210;2024-03-08T06:04:12;27.30;;;16.87;;
17790;SDS011;9019;48.132;-1.210;2024-03-08T06:06:41;28.43;;;17.17;;
17790;SDS011;9019;48.132;-1.210;2024-03-08T06:09:08;25.40;;;16.57;;
17790;SDS011;9019;48.132;-1.210;2024-03-08T06:11:36;26.90;;;16.90;;
17790;SDS011;9019;48.132;-1.210;2024-03-08T06:14:03;28.57;;;16.77;;
17790;SDS011;9019;48.132;-1.210;2024-03-08T06:16:31;28.43;;;16.73;;
17790;SDS011;9019;48.132;-1.210;2024-03-08T06:18:58;26.93;;;17.33;;
17790;SDS011;9019;48.132;-1.210;2024-03-08T06:21:27;31.53;;;17.90;;
17790;SDS011;9019;48.132;-1.210;2024-03-08T06:23:56;28.27;;;17.43;;
17790;SDS011;9019;48.132;-1.210;2024-03-08T06:26:23;28.90;;;17.23;;
17790;SDS011;9019;48.132;-1.210;2024-03-08T06:28:53;28.70;;;17.53;;
17790;SDS011;9019;48.132;-1.210;2024-03-08T06:31:20;27.87;;;17.00;;
17790;SDS011;9019;48.132;-1.210;2024-03-08T06:33:47;31.47;;;17.53;;
17790;SDS011;9019;48.132;-1.210;2024-03-08T06:36:15;28.87;;;17.47;;
17790;SDS011;9019;48.132;-1.210;2024-03-08T06:38:44;29.97;;;17.63;;
17790;SDS011;9019;48.132;-1.210;2024-03-08T06:41:12;31.97;;;18.10;;
17790;SDS011;9019;48.132;-1.210;2024-03-08T06:43:41;29.10;;;17.33;;
17790;SDS011;9019;48.132;-1.210;2024-03-08T06:46:08;30.53;;;17.87;;
17790;SDS011;9019;48.132;-1.210;2024-03-08T06:48:37;28.87;;;17.77;;
17790;SDS011;9019;48.132;-1.210;2024-03-08T06:51:04;26.77;;;16.87;;
17790;SDS011;9019;48.132;-1.210;2024-03-08T06:53:32;29.30;;;17.63;;
17790;SDS011;9019;48.132;-1.210;2024-03-08T06:56:00;28.23;;;17.97;;
17790;SDS011;9019;48.132;-1.210;2024-03-08T06:58:28;27.50;;;17.00;;
17790;SDS011;9019;48.132;-1.210;2024-03-08T07:00:55;26.00;;;16.87;;
17790;SDS011;9019;48.132;-1.210;2024-03-08T07:03:25;27.13;;;16.53;;
17790;SDS011;9019;48.132;-1.210;2024-03-08T07:05:54;29.70;;;17.13;;
17790;SDS011;9019;48.132;-1.210;2024-03-08T07:08:23;28.53;;;16.60;;
17790;SDS011;9019;48.132;-1.210;2024-03-08T07:10:52;26.70;;;17.17;;
17790;SDS011;9019;48.132;-1.210;2024-03-08T07:13:19;29.27;;;17.63;;
17790;SDS011;9019;48.132;-1.210;2024-03-08T07:15:47;27.37;;;16.33;;
17790;SDS011;9019;48.132;-1.210;2024-03-08T07:18:17;27.43;;;16.63;;
17790;SDS011;9019;48.132;-1.210;2024-03-08T07:20:44;27.37;;;17.17;;
17790;SDS011;9019;48.132;-1.210;2024-03-08T07:23:11;28.90;;;16.73;;
17790;SDS011;9019;48.132;-1.210;2024-03-08T07:25:58;27.37;;;16.93;;
17790;SDS011;9019;48.132;-1.210;2024-03-08T07:28:26;26.33;;;16.50;;
17790;SDS011;9019;48.132;-1.210;2024-03-08T07:30:56;30.60;;;16.37;;
17790;SDS011;9019;48.132;-1.210;2024-03-08T07:33:37;25.70;;;16.23;;
17790;SDS011;9019;48.132;-1.210;2024-03-08T07:36:04;27.70;;;17.13;;
17790;SDS011;9019;48.132;-1.210;2024-03-08T07:38:32;28.03;;;16.13;;
17790;SDS011;9019;48.132;-1.210;2024-03-08T07:40:59;28.47;;;17.07;;
17790;SDS011;9019;48.132;-1.210;2024-03-08T07:43:27;26.07;;;16.33;;
17790;SDS011;9019;48.132;-1.210;2024-03-08T07:45:54;26.90;;;16.03;;
17790;SDS011;9019;48.132;-1.210;2024-03-08T07:48:22;24.30;;;15.70;;
17790;SDS011;9019;48.132;-1.210;2024-03-08T07:50:51;28.20;;;16.70;;
17790;SDS011;9019;48.132;-1.210;2024-03-08T07:53:18;25.83;;;16.33;;
17790;SDS011;9019;48.132;-1.210;2024-03-08T07:55:45;26.67;;;16.50;;
17790;SDS011;9019;48.132;-1.210;2024-03-08T07:58:12;26.40;;;16.07;;
17790;SDS011;9019;48.132;-1.210;2024-03-08T08:00:39;27.30;;;16.00;;
17790;SDS011;9019;48.132;-1.210;2024-03-08T08:03:08;27.17;;;16.43;;
17790;SDS011;9019;48.132;-1.210;2024-03-08T08:05:36;24.77;;;15.93;;
17790;SDS011;9019;48.132;-1.210;2024-03-08T08:08:04;23.77;;;16.03;;
17790;SDS011;9019;48.132;-1.210;2024-03-08T08:10:32;26.77;;;16.33;;
17790;SDS011;9019;48.132;-1.210;2024-03-08T08:12:59;24.43;;;15.70;;
17790;SDS011;9019;48.132;-1.210;2024-03-08T08:15:30;25.93;;;15.93;;
17790;SDS011;9019;48.132;-1.210;2024-03-08T08:17:59;23.27;;;15.33;;
17790;SDS011;9019;48.132;-1.210;2024-03-08T08:20:27;21.70;;;14.10;;
17790;SDS011;9019;48.132;-1.210;2024-03-08T08:22:56;23.73;;;15.53;;
17790;SDS011;9019;48.132;-1.210;2024-03-08T08:25:24;24.43;;;15.70;;
17790;SDS011;9019;48.132;-1.210;2024-03-08T08:27:51;23.20;;;15.17;;
17790;SDS011;9019;48.132;-1.210;2024-03-08T08:30:19;20.53;;;14.33;;
17790;SDS011;9019;48.132;-1.210;2024-03-08T08:32:46;22.97;;;15.00;;
17790;SDS011;9019;48.132;-1.210;2024-03-08T08:35:13;21.40;;;14.57;;
17790;SDS011;9019;48.132;-1.210;2024-03-08T08:37:41;23.50;;;15.93;;
17790;SDS011;9019;48.132;-1.210;2024-03-08T08:40:11;24.17;;;15.77;;
17790;SDS011;9019;48.132;-1.210;2024-03-08T08:42:42;22.97;;;14.70;;
17790;SDS011;9019;48.132;-1.210;2024-03-08T08:45:10;21.80;;;15.27;;
17790;SDS011;9019;48.132;-1.210;2024-03-08T08:47:38;21.60;;;14.47;;
17790;SDS011;9019;48.132;-1.210;2024-03-08T08:50:07;22.07;;;14.83;;
17790;SDS011;9019;48.132;-1.210;2024-03-08T08:52:36;24.73;;;16.40;;
17790;SDS011;9019;48.132;-1.210;2024-03-08T08:55:04;20.90;;;14.33;;
17790;SDS011;9019;48.132;-1.210;2024-03-08T08:57:34;21.20;;;14.63;;
17790;SDS011;9019;48.132;-1.210;2024-03-08T09:00:01;20.07;;;13.73;;
17790;SDS011;9019;48.132;-1.210;2024-03-08T09:02:32;20.13;;;13.67;;
17790;SDS011;9019;48.132;-1.210;2024-03-08T09:04:59;20.80;;;13.53;;
17790;SDS011;9019;48.132;-1.210;2024-03-08T09:07:27;17.93;;;12.97;;
17790;SDS011;9019;48.132;-1.210;2024-03-08T09:09:54;19.90;;;13.07;;
17790;SDS011;9019;48.132;-1.210;2024-03-08T09:12:23;20.47;;;13.70;;
17790;SDS011;9019;48.132;-1.210;2024-03-08T09:14:51;17.97;;;13.03;;
17790;SDS011;9019;48.132;-1.210;2024-03-08T09:17:19;17.27;;;12.40;;
17790;SDS011;9019;48.132;-1.210;2024-03-08T09:19:47;17.27;;;12.03;;
17790;SDS011;9019;48.132;-1.210;2024-03-08T09:22:14;16.73;;;11.93;;
17790;SDS011;9019;48.132;-1.210;2024-03-08T09:24:41;17.97;;;12.23;;
17790;SDS011;9019;48.132;-1.210;2024-03-08T09:27:09;17.40;;;11.83;;
17790;SDS011;9019;48.132;-1.210;2024-03-08T09:29:36;19.70;;;12.23;;
17790;SDS011;9019;48.132;-1.210;2024-03-08T09:32:05;19.00;;;12.43;;
17790;SDS011;9019;48.132;-1.210;2024-03-08T09:34:32;19.67;;;11.93;;
17790;SDS011;9019;48.132;-1.210;2024-03-08T09:37:00;15.90;;;11.60;;
17790;SDS011;9019;48.132;-1.210;2024-03-08T09:39:29;15.60;;;11.23;;
17790;SDS011;9019;48.132;-1.210;2024-03-08T09:41:58;16.57;;;11.57;;
17790;SDS011;9019;48.132;-1.210;2024-03-08T09:44:25;16.43;;;11.57;;
17790;SDS011;9019;48.132;-1.210;2024-03-08T09:46:54;15.83;;;11.67;;
17790;SDS011;9019;48.132;-1.210;2024-03-08T09:49:24;15.73;;;11.33;;
17790;SDS011;9019;48.132;-1.210;2024-03-08T09:51:52;17.37;;;11.20;;
17790;SDS011;9019;48.132;-1.210;2024-03-08T09:54:20;16.43;;;11.30;;
17790;SDS011;9019;48.132;-1.210;2024-03-08T09:56:49;16.00;;;10.87;;
17790;SDS011;9019;48.132;-1.210;2024-03-08T09:59:18;15.10;;;10.47;;
17790;SDS011;9019;48.132;-1.210;2024-03-08T10:02:02;15.50;;;10.47;;
17790;SDS011;9019;48.132;-1.210;2024-03-08T10:04:31;14.43;;;10.27;;
17790;SDS011;9019;48.132;-1.210;2024-03-08T10:06:59;14.77;;;10.20;;
17790;SDS011;9019;48.132;-1.210;2024-03-08T10:09:26;14.87;;;10.63;;
17790;SDS011;9019;48.132;-1.210;2024-03-08T10:11:53;15.13;;;10.37;;
17790;SDS011;9019;48.132;-1.210;2024-03-08T10:14:23;14.77;;;10.30;;
17790;SDS011;9019;48.132;-1.210;2024-03-08T10:16:51;13.83;;;9.83;;
17790;SDS011;9019;48.132;-1.210;2024-03-08T10:19:19;13.33;;;9.83;;
17790;SDS011;9019;48.132;-1.210;2024-03-08T10:21:48;12.90;;;9.27;;
17790;SDS011;9019;48.132;-1.210;2024-03-08T10:24:18;14.33;;;10.60;;
17790;SDS011;9019;48.132;-1.210;2024-03-08T10:26:45;13.87;;;9.97;;
17790;SDS011;9019;48.132;-1.210;2024-03-08T10:29:13;17.37;;;11.27;;
17790;SDS011;9019;48.132;-1.210;2024-03-08T10:31:42;16.00;;;10.97;;
17790;SDS011;9019;48.132;-1.210;2024-03-08T10:34:10;12.70;;;9.63;;
17790;SDS011;9019;48.132;-1.210;2024-03-08T10:36:37;12.87;;;9.83;;
17790;SDS011;9019;48.132;-1.210;2024-03-08T10:39:10;15.33;;;10.27;;
17790;SDS011;9019;48.132;-1.210;2024-03-08T10:41:39;14.53;;;9.37;;
17790;SDS011;9019;48.132;-1.210;2024-03-08T10:44:10;12.63;;;8.47;;
17790;SDS011;9019;48.132;-1.210;2024-03-08T10:46:45;12.37;;;8.83;;
17790;SDS011;9019;48.132;-1.210;2024-03-08T10:49:20;11.47;;;8.17;;
17790;SDS011;9019;48.132;-1.210;2024-03-08T10:51:50;12.73;;;9.03;;
17790;SDS011;9019;48.132;-1.210;2024-03-08T10:54:19;14.00;;;8.40;;
17790;SDS011;9019;48.132;-1.210;2024-03-08T10:56:47;9.93;;;7.40;;
17790;SDS011;9019;48.132;-1.210;2024-03-08T10:59:15;10.63;;;8.13;;
17790;SDS011;9019;48.132;-1.210;2024-03-08T11:01:44;13.90;;;9.40;;
17790;SDS011;9019;48.132;-1.210;2024-03-08T11:04:11;14.93;;;9.73;;
17790;SDS011;9019;48.132;-1.210;2024-03-08T11:06:42;13.70;;;9.77;;
17790;SDS011;9019;48.132;-1.210;2024-03-08T11:09:13;13.57;;;9.13;;
17790;SDS011;9019;48.132;-1.210;2024-03-08T11:14:44;11.13;;;7.67;;
17790;SDS011;9019;48.132;-1.210;2024-03-08T11:17:14;11.17;;;7.53;;
17790;SDS011;9019;48.132;-1.210;2024-03-08T11:19:46;8.10;;;6.40;;
17790;SDS011;9019;48.132;-1.210;2024-03-08T11:22:20;9.00;;;6.27;;
17790;SDS011;9019;48.132;-1.210;2024-03-08T11:24:48;8.20;;;6.07;;
17790;SDS011;9019;48.132;-1.210;2024-03-08T11:27:16;10.20;;;6.50;;
17790;SDS011;9019;48.132;-1.210;2024-03-08T11:29:44;8.93;;;6.00;;
17790;SDS011;9019;48.132;-1.210;2024-03-08T11:32:12;11.03;;;6.60;;
17790;SDS011;9019;48.132;-1.210;2024-03-08T11:34:40;9.73;;;6.20;;
17790;SDS011;9019;48.132;-1.210;2024-03-08T11:37:11;9.33;;;6.10;;
17790;SDS011;9019;48.132;-1.210;2024-03-08T11:39:40;8.57;;;5.60;;
17790;SDS011;9019;48.132;-1.210;2024-03-08T11:42:07;14.83;;;6.80;;
17790;SDS011;9019;48.132;-1.210;2024-03-08T11:44:36;9.00;;;5.80;;
17790;SDS011;9019;48.132;-1.210;2024-03-08T11:47:09;10.10;;;6.10;;
17790;SDS011;9019;48.132;-1.210;2024-03-08T11:49:36;7.73;;;5.33;;
17790;SDS011;9019;48.132;-1.210;2024-03-08T11:52:04;9.13;;;6.23;;
17790;SDS011;9019;48.132;-1.210;2024-03-08T11:54:32;11.23;;;6.43;;
17790;SDS011;9019;48.132;-1.210;2024-03-08T11:56:59;9.80;;;5.77;;
17790;SDS011;9019;48.132;-1.210;2024-03-08T11:59:27;9.23;;;6.17;;
17790;SDS011;9019;48.132;-1.210;2024-03-08T12:01:59;8.13;;;5.50;;
17790;SDS011;9019;48.132;-1.210;2024-03-08T12:04:28;8.97;;;5.63;;
17790;SDS011;9019;48.132;-1.210;2024-03-08T12:06:58;8.80;;;5.60;;
17790;SDS011;9019;48.132;-1.210;2024-03-08T12:09:27;9.80;;;6.10;;
17790;SDS011;9019;48.132;-1.210;2024-03-08T12:11:55;8.27;;;5.97;;
17790;SDS011;9019;48.132;-1.210;2024-03-08T12:14:22;10.10;;;5.63;;
17790;SDS011;9019;48.132;-1.210;2024-03-08T12:16:50;9.20;;;6.03;;
17790;SDS011;9019;48.132;-1.210;2024-03-08T12:19:18;10.47;;;5.73;;
17790;SDS011;9019;48.132;-1.210;2024-03-08T12:21:46;7.53;;;5.67;;
17790;SDS011;9019;48.132;-1.210;2024-03-08T12:24:14;10.73;;;6.57;;
17790;SDS011;9019;48.132;-1.210;2024-03-08T12:26:44;8.87;;;6.03;;
17790;SDS011;9019;48.132;-1.210;2024-03-08T12:29:16;10.03;;;5.90;;
17790;SDS011;9019;48.132;-1.210;2024-03-08T12:31:45;8.13;;;5.77;;
17790;SDS011;9019;48.132;-1.210;2024-03-08T12:34:13;7.63;;;6.17;;
17790;SDS011;9019;48.132;-1.210;2024-03-08T12:36:44;7.57;;;5.73;;
17790;SDS011;9019;48.132;-1.210;2024-03-08T12:39:14;8.73;;;6.00;;
17790;SDS011;9019;48.132;-1.210;2024-03-08T12:41:43;8.57;;;6.10;;
17790;SDS011;9019;48.132;-1.210;2024-03-08T12:44:11;8.23;;;6.00;;
17790;SDS011;9019;48.132;-1.210;2024-03-08T12:46:39;10.33;;;5.93;;
17790;SDS011;9019;48.132;-1.210;2024-03-08T12:49:07;10.23;;;6.27;;
17790;SDS011;9019;48.132;-1.210;2024-03-08T12:51:36;10.30;;;6.65;;
17790;SDS011;9019;48.132;-1.210;2024-03-08T12:54:04;9.07;;;6.07;;
17790;SDS011;9019;48.132;-1.210;2024-03-08T12:56:34;10.10;;;5.95;;
17790;SDS011;9019;48.132;-1.210;2024-03-08T12:59:02;8.68;;;5.85;;
17790;SDS011;9019;48.132;-1.210;2024-03-08T13:01:30;8.35;;;5.80;;
17790;SDS011;9019;48.132;-1.210;2024-03-08T13:03:58;8.43;;;5.80;;
17790;SDS011;9019;48.132;-1.210;2024-03-08T13:06:27;7.13;;;5.68;;
17790;SDS011;9019;48.132;-1.210;2024-03-08T13:08:56;9.13;;;5.80;;
17790;SDS011;9019;48.132;-1.210;2024-03-08T13:11:24;10.40;;;6.80;;
17790;SDS011;9019;48.132;-1.210;2024-03-08T13:13:53;8.30;;;6.45;;
17790;SDS011;9019;48.132;-1.210;2024-03-08T13:16:20;8.18;;;6.07;;
17790;SDS011;9019;48.132;-1.210;2024-03-08T13:18:48;9.55;;;6.13;;
17790;SDS011;9019;48.132;-1.210;2024-03-08T13:21:15;9.85;;;6.55;;
17790;SDS011;9019;48.132;-1.210;2024-03-08T13:23:44;8.43;;;6.47;;
17790;SDS011;9019;48.132;-1.210;2024-03-08T13:26:14;8.13;;;6.00;;
17790;SDS011;9019;48.132;-1.210;2024-03-08T13:28:42;8.23;;;6.00;;
17790;SDS011;9019;48.132;-1.210;2024-03-08T13:31:11;8.87;;;6.43;;
17790;SDS011;9019;48.132;-1.210;2024-03-08T13:33:40;10.48;;;5.95;;
17790;SDS011;9019;48.132;-1.210;2024-03-08T13:36:11;8.60;;;6.47;;
17790;SDS011;9019;48.132;-1.210;2024-03-08T13:38:41;7.10;;;6.10;;
17790;SDS011;9019;48.132;-1.210;2024-03-08T13:41:12;8.80;;;5.90;;
17790;SDS011;9019;48.132;-1.210;2024-03-08T13:43:40;10.27;;;6.70;;
17790;SDS011;9019;48.132;-1.210;2024-03-08T13:46:07;10.47;;;5.90;;
17790;SDS011;9019;48.132;-1.210;2024-03-08T13:48:37;6.97;;;5.40;;
17790;SDS011;9019;48.132;-1.210;2024-03-08T13:51:04;11.77;;;7.20;;
17790;SDS011;9019;48.132;-1.210;2024-03-08T13:53:33;8.70;;;6.60;;
17790;SDS011;9019;48.132;-1.210;2024-03-08T13:56:01;9.70;;;6.20;;
17790;SDS011;9019;48.132;-1.210;2024-03-08T13:58:28;8.23;;;5.97;;
17790;SDS011;9019;48.132;-1.210;2024-03-08T14:00:56;10.37;;;6.53;;
17790;SDS011;9019;48.132;-1.210;2024-03-08T14:03:23;8.67;;;6.03;;
17790;SDS011;9019;48.132;-1.210;2024-03-08T14:05:52;9.13;;;6.20;;
17790;SDS011;9019;48.132;-1.210;2024-03-08T14:08:20;9.40;;;6.80;;
17790;SDS011;9019;48.132;-1.210;2024-03-08T14:10:47;9.50;;;6.27;;
17790;SDS011;9019;48.132;-1.210;2024-03-08T14:13:16;9.20;;;6.23;;
17790;SDS011;9019;48.132;-1.210;2024-03-08T14:15:44;9.43;;;6.23;;
17790;SDS011;9019;48.132;-1.210;2024-03-08T14:18:11;7.67;;;6.03;;
17790;SDS011;9019;48.132;-1.210;2024-03-08T14:20:39;8.90;;;6.43;;
17790;SDS011;9019;48.132;-1.210;2024-03-08T14:23:08;8.83;;;5.80;;
17790;SDS011;9019;48.132;-1.210;2024-03-08T14:25:37;7.93;;;6.10;;
17790;SDS011;9019;48.132;-1.210;2024-03-08T14:28:06;10.13;;;6.43;;
17790;SDS011;9019;48.132;-1.210;2024-03-08T14:30:33;8.20;;;6.40;;
17790;SDS011;9019;48.132;-1.210;2024-03-08T14:33:03;9.67;;;6.73;;
17790;SDS011;9019;48.132;-1.210;2024-03-08T14:35:34;10.53;;;6.70;;
17790;SDS011;9019;48.132;-1.210;2024-03-08T14:38:01;8.97;;;7.47;;